Time;durP1;ratioP1;P1;durP2;ratioP2;P2;SDS_P1;SDS_P2;PMS_P1;PMS_P2;Temp;Humidity;BMP_temperature;BMP_pressure;BME280_temperature;BME280_humidity;BME280_pressure;Samples;Min_cycle;Max_cycle;Signal;HPM_P1;HPM_P2
2022/07/24 00:02:20;;;;;;;5.50;5.00;;;28.70;46.60;;;;;;5091603;28;20874;-79
2022/07/24 00:04:46;;;;;;;6.10;5.50;;;28.70;46.50;;;;;;5100463;28;20458;-79
2022/07/24 00:07:21;;;;;;;6.43;5.33;;;28.70;46.50;;;;;;5092489;28;20517;-79
2022/07/24 00:09:47;;;;;;;5.33;4.93;;;28.70;46.50;;;;;;5072637;28;20445;-79
2022/07/24 00:12:14;;;;;;;7.70;4.80;;;28.70;46.40;;;;;;5072149;28;20482;-79
2022/07/24 00:14:40;;;;;;;5.90;5.30;;;28.70;46.50;;;;;;5071309;28;20421;-79
2022/07/24 00:17:06;;;;;;;5.60;5.13;;;28.70;46.40;;;;;;5074105;28;20852;-79
2022/07/24 00:22:55;;;;;;;5.73;5.23;;;28.70;46.60;;;;;;5093140;28;20208;-79
2022/07/24 00:25:20;;;;;;;5.57;5.07;;;28.60;46.60;;;;;;5093534;28;20440;-79
2022/07/24 00:27:46;;;;;;;5.10;4.70;;;28.60;46.60;;;;;;5075115;28;20451;-79
2022/07/24 00:30:13;;;;;;;7.63;4.80;;;28.60;46.60;;;;;;5089643;28;20185;-80
2022/07/24 00:32:39;;;;;;;5.17;4.53;;;28.60;46.60;;;;;;5060619;28;20202;-80
2022/07/24 00:35:05;;;;;;;5.73;5.23;;;28.60;46.40;;;;;;5075031;28;20412;-80
2022/07/24 00:37:31;;;;;;;4.80;4.40;;;28.60;46.50;;;;;;5075177;28;20708;-80
2022/07/24 00:39:57;;;;;;;5.37;4.87;;;28.60;46.40;;;;;;5075608;28;20444;-80
2022/07/24 00:42:23;;;;;;;6.70;4.60;;;28.60;46.40;;;;;;5093217;28;20192;-80
2022/07/24 00:44:49;;;;;;;5.63;5.13;;;28.60;46.40;;;;;;5075720;28;20456;-80
2022/07/24 00:47:15;;;;;;;5.47;4.97;;;28.60;46.40;;;;;;5075230;28;20488;-80
2022/07/24 00:49:41;;;;;;;5.57;5.07;;;28.60;46.40;;;;;;5075046;28;20427;-80
2022/07/24 00:52:07;;;;;;;5.63;5.13;;;28.60;46.40;;;;;;5093215;28;20429;-80
2022/07/24 00:54:33;;;;;;;5.83;5.17;;;28.60;46.50;;;;;;5074299;28;20760;-79
2022/07/24 00:56:59;;;;;;;5.53;5.03;;;28.60;46.60;;;;;;5094647;28;20498;-79
2022/07/24 00:59:25;;;;;;;5.07;4.67;;;28.60;46.50;;;;;;5095587;28;20511;-80
2022/07/24 01:01:51;;;;;;;5.20;4.80;;;28.60;46.40;;;;;;5094544;28;20597;-79
2022/07/24 01:04:19;;;;;;;5.90;5.13;;;28.60;46.30;;;;;;5095268;28;20205;-79
2022/07/24 01:06:46;;;;;;;5.83;5.33;;;28.60;46.30;;;;;;5075253;28;20413;-80
2022/07/24 01:09:13;;;;;;;5.60;5.03;;;28.60;46.40;;;;;;5074025;28;20451;-80
2022/07/24 01:11:40;;;;;;;5.20;4.70;;;28.60;46.40;;;;;;5057269;28;20413;-80
2022/07/24 01:14:06;;;;;;;5.70;5.20;;;28.60;46.50;;;;;;5074117;28;20433;-80
2022/07/24 01:16:34;;;;;;;9.47;5.30;;;28.60;46.40;;;;;;5073924;28;20421;-80
2022/07/24 01:19:00;;;;;;;6.07;5.50;;;28.60;46.40;;;;;;5092124;28;20405;-79
2022/07/24 01:21:26;;;;;;;5.43;4.93;;;28.60;46.40;;;;;;5088522;28;20898;-78
2022/07/24 01:23:52;;;;;;;6.07;5.47;;;28.60;46.40;;;;;;5083585;28;20462;-80
2022/07/24 01:26:18;;;;;;;5.03;4.63;;;28.60;46.40;;;;;;5090500;28;20178;-80
2022/07/24 01:28:44;;;;;;;5.83;5.00;;;28.60;46.40;;;;;;5072594;28;20400;-80
2022/07/24 01:31:11;;;;;;;5.90;5.00;;;28.60;46.50;;;;;;5073831;28;20405;-80
2022/07/24 01:33:37;;;;;;;5.80;5.30;;;28.60;46.50;;;;;;5072819;28;20420;-80
2022/07/24 01:36:03;;;;;;;5.70;5.07;;;28.60;46.50;;;;;;5091047;28;20397;-79
2022/07/24 01:38:30;;;;;;;6.60;5.00;;;28.60;46.40;;;;;;5107139;28;20436;-79
2022/07/24 01:40:56;;;;;;;6.13;5.60;;;28.60;46.40;;;;;;5073216;28;20412;-79
2022/07/24 01:43:23;;;;;;;4.90;4.50;;;28.60;46.30;;;;;;5073474;28;20408;-79
2022/07/24 01:45:50;;;;;;;5.80;5.30;;;28.60;46.30;;;;;;5074162;28;20803;-79
2022/07/24 01:48:17;;;;;;;5.50;5.00;;;28.50;46.40;;;;;;5073535;28;20420;-79
2022/07/24 01:50:45;;;;;;;5.20;4.80;;;28.60;46.40;;;;;;5091968;28;20405;-80
2022/07/24 01:53:11;;;;;;;4.90;4.50;;;28.50;46.40;;;;;;5073522;28;20501;-81
2022/07/24 01:55:38;;;;;;;4.70;4.30;;;28.60;46.40;;;;;;5073516;28;20436;-79
2022/07/24 01:58:05;;;;;;;6.00;5.50;;;28.60;46.40;;;;;;5073760;28;20416;-79
2022/07/24 02:00:31;;;;;;;5.57;5.07;;;28.50;46.40;;;;;;5091177;28;20472;-80
2022/07/24 02:02:57;;;;;;;5.23;4.83;;;28.50;46.40;;;;;;5072701;28;20412;-79
2022/07/24 02:05:24;;;;;;;4.77;4.30;;;28.50;46.40;;;;;;5072836;28;20456;-80
2022/07/24 02:08:40;;;;;;;6.40;5.80;;;28.50;46.30;;;;;;5056651;28;20478;-80
2022/07/24 02:11:06;;;;;;;5.90;5.40;;;28.50;46.20;;;;;;5073509;28;20420;-80
2022/07/24 02:13:33;;;;;;;5.90;5.40;;;28.50;46.20;;;;;;5072622;28;20477;-80
2022/07/24 02:15:59;;;;;;;5.67;5.10;;;28.50;46.30;;;;;;5072805;28;20415;-80
2022/07/24 02:18:26;;;;;;;5.70;5.20;;;28.50;46.30;;;;;;5072730;28;20412;-80
2022/07/24 02:20:56;;;;;;;5.23;4.73;;;28.50;46.30;;;;;;5072879;28;20431;-80
2022/07/24 02:23:23;;;;;;;5.13;4.63;;;28.50;46.30;;;;;;5072739;28;20460;-80
2022/07/24 02:25:50;;;;;;;5.97;5.37;;;28.50;46.30;;;;;;5072375;28;20453;-81
2022/07/24 02:28:18;;;;;;;5.87;5.30;;;28.50;46.20;;;;;;5072226;28;20417;-80
2022/07/24 02:30:47;;;;;;;5.67;5.10;;;28.50;46.30;;;;;;5072326;28;20413;-80
2022/07/24 02:33:13;;;;;;;6.00;5.50;;;28.50;46.30;;;;;;5072255;28;20429;-80
2022/07/24 02:35:40;;;;;;;6.17;5.57;;;28.50;46.20;;;;;;5091133;28;20413;-80
2022/07/24 02:38:08;;;;;;;6.83;5.50;;;28.50;46.20;;;;;;5074429;28;20421;-80
2022/07/24 02:40:38;;;;;;;4.90;4.50;;;28.50;46.20;;;;;;5074530;28;20424;-80
2022/07/24 02:43:04;;;;;;;5.27;4.87;;;28.50;46.30;;;;;;5074220;28;20726;-80
2022/07/24 02:45:31;;;;;;;4.93;4.43;;;28.50;46.20;;;;;;5074624;28;20463;-80
2022/07/24 02:47:58;;;;;;;5.43;5.03;;;28.50;46.10;;;;;;5074265;28;20452;-80
2022/07/24 02:50:30;;;;;;;5.63;4.90;;;28.50;46.10;;;;;;5074133;28;20409;-80
2022/07/24 02:52:57;;;;;;;5.63;5.13;;;28.40;46.00;;;;;;5074583;28;20472;-80
2022/07/24 02:55:24;;;;;;;5.90;5.40;;;28.40;46.10;;;;;;5074453;28;20428;-80
2022/07/24 02:57:50;;;;;;;5.20;4.80;;;28.40;46.00;;;;;;5074020;28;20429;-79
2022/07/24 03:00:16;;;;;;;4.93;4.53;;;28.40;45.90;;;;;;5065460;28;20428;-81
2022/07/24 03:02:44;;;;;;;5.93;5.33;;;28.40;46.00;;;;;;5091075;28;20404;-80
2022/07/24 03:05:10;;;;;;;4.77;4.27;;;28.40;45.90;;;;;;5074003;28;20452;-81
2022/07/24 03:07:37;;;;;;;5.30;4.90;;;28.40;45.90;;;;;;5073603;28;20405;-81
2022/07/24 03:10:05;;;;;;;4.97;4.57;;;28.40;45.90;;;;;;5073454;28;20417;-80
2022/07/24 03:12:31;;;;;;;5.57;5.07;;;28.40;45.90;;;;;;5073830;28;20495;-80
2022/07/24 03:14:58;;;;;;;6.40;5.80;;;28.40;46.00;;;;;;5072886;28;20419;-80
2022/07/24 03:17:26;;;;;;;5.20;4.70;;;28.40;45.90;;;;;;5074028;28;20428;-80
2022/07/24 03:19:52;;;;;;;5.50;5.00;;;28.40;45.90;;;;;;5059234;28;20789;-80
2022/07/24 03:22:20;;;;;;;5.83;5.37;;;28.30;45.90;;;;;;5093667;28;20411;-81
2022/07/24 03:24:46;;;;;;;5.20;4.77;;;28.30;45.90;;;;;;5075078;28;20456;-81
2022/07/24 03:27:15;;;;;;;5.60;5.10;;;28.30;45.90;;;;;;5075271;28;20462;-81
2022/07/24 03:29:42;;;;;;;5.70;5.20;;;28.30;45.90;;;;;;5075839;28;20405;-81
2022/07/24 03:32:08;;;;;;;6.63;5.93;;;28.30;45.90;;;;;;5075472;28;20444;-81
2022/07/24 03:34:36;;;;;;;5.97;5.37;;;28.30;45.90;;;;;;5075239;28;20446;-81
2022/07/24 03:37:04;;;;;;;5.67;5.17;;;28.30;45.90;;;;;;5058659;28;20191;-81
2022/07/24 03:39:34;;;;;;;5.63;5.13;;;28.30;45.90;;;;;;5092918;28;20424;-81
2022/07/24 03:42:01;;;;;;;8.43;5.83;;;28.20;45.90;;;;;;5075795;28;20508;-81
2022/07/24 03:44:27;;;;;;;5.70;5.20;;;28.20;45.90;;;;;;5075338;28;20460;-81
2022/07/24 03:47:00;;;;;;;5.87;5.33;;;28.20;45.90;;;;;;5075076;28;20416;-81
2022/07/24 03:49:26;;;;;;;5.37;4.93;;;28.30;46.00;;;;;;5069794;28;20413;-80
2022/07/24 03:51:52;;;;;;;5.23;4.73;;;28.20;45.90;;;;;;5068995;28;20427;-80
2022/07/24 03:54:18;;;;;;;5.37;4.97;;;28.20;46.00;;;;;;5087678;28;20565;-79
2022/07/24 03:56:44;;;;;;;5.73;5.23;;;28.20;46.10;;;;;;5069853;28;20175;-80
2022/07/24 03:59:10;;;;;;;5.13;4.63;;;28.20;46.00;;;;;;5069935;28;20408;-80
2022/07/24 04:04:59;;;;;;;5.60;5.10;;;28.20;46.10;;;;;;5086903;28;20494;-80
2022/07/24 04:07:25;;;;;;;5.40;4.90;;;28.20;46.10;;;;;;5069635;28;20503;-78
2022/07/24 04:09:51;;;;;;;5.37;4.87;;;28.10;46.00;;;;;;5069606;28;20480;-80
2022/07/24 04:12:18;;;;;;;5.53;5.03;;;28.10;46.00;;;;;;5086977;28;20417;-79
2022/07/24 04:14:43;;;;;;;6.10;5.60;;;28.10;46.00;;;;;;5103318;28;20492;-79
2022/07/24 04:17:10;;;;;;;5.77;5.23;;;28.10;46.10;;;;;;5087473;28;20408;-79
2022/07/24 04:19:36;;;;;;;6.33;5.20;;;28.20;46.10;;;;;;5102782;28;20210;-79
2022/07/24 04:22:02;;;;;;;6.13;5.53;;;28.20;46.10;;;;;;5073636;28;20488;-80
2022/07/24 04:24:27;;;;;;;5.70;5.20;;;28.20;46.10;;;;;;5081871;28;20986;-80
2022/07/24 04:30:42;;;;;;;5.87;5.07;;;28.20;46.10;;;;;;5107188;28;20173;-78
2022/07/24 04:33:08;;;;;;;5.93;5.40;;;28.10;46.10;;;;;;5089333;28;20419;-79
2022/07/24 04:35:34;;;;;;;5.30;4.87;;;28.10;46.10;;;;;;5090298;28;20412;-79
2022/07/24 04:38:00;;;;;;;5.67;5.20;;;28.10;46.10;;;;;;5089971;28;20427;-78
2022/07/24 04:40:26;;;;;;;5.50;5.00;;;28.10;46.00;;;;;;5089938;28;20178;-80
2022/07/24 04:42:52;;;;;;;5.93;5.43;;;28.20;46.10;;;;;;5107630;28;20527;-80
2022/07/24 04:48:40;;;;;;;5.63;5.13;;;28.20;46.10;;;;;;5086812;28;20165;-78
2022/07/24 04:51:06;;;;;;;5.40;5.00;;;28.10;46.00;;;;;;5086846;28;20432;-80
2022/07/24 04:53:32;;;;;;;5.70;5.20;;;28.20;46.10;;;;;;5087080;28;20420;-80
2022/07/24 04:55:58;;;;;;;6.47;5.87;;;28.10;46.00;;;;;;5087274;28;20174;-80
2022/07/24 04:58:26;;;;;;;5.40;4.80;;;28.10;45.90;;;;;;5069032;28;20463;-80
2022/07/24 05:00:52;;;;;;;6.90;5.73;;;28.10;45.90;;;;;;5068897;28;20405;-80
2022/07/24 05:03:18;;;;;;;6.03;5.20;;;28.10;45.90;;;;;;5069898;28;20443;-80
2022/07/24 05:05:44;;;;;;;6.90;6.20;;;28.10;45.80;;;;;;5090169;28;20455;-79
2022/07/24 05:08:13;;;;;;;6.23;5.17;;;28.10;45.90;;;;;;5072349;28;20869;-79
2022/07/24 05:10:39;;;;;;;5.60;5.10;;;28.10;45.90;;;;;;5073175;28;20416;-79
2022/07/24 05:13:06;;;;;;;5.13;4.63;;;28.10;45.80;;;;;;5072483;28;20409;-79
2022/07/24 05:18:54;;;;;;;6.03;5.37;;;28.10;45.80;;;;;;5089602;28;20892;-79
2022/07/24 05:21:20;;;;;;;6.07;5.47;;;28.10;45.80;;;;;;5072913;28;20413;-79
2022/07/24 05:23:46;;;;;;;5.57;5.07;;;28.10;45.80;;;;;;5072792;28;20409;-79
2022/07/24 05:26:12;;;;;;;5.27;4.77;;;28.10;45.90;;;;;;5073533;28;20416;-79
2022/07/24 05:28:38;;;;;;;4.47;4.07;;;28.10;45.90;;;;;;5091269;28;20162;-79
2022/07/24 05:31:04;;;;;;;5.83;5.23;;;28.10;45.90;;;;;;5074610;28;20396;-79
2022/07/24 05:33:31;;;;;;;5.33;4.83;;;28.10;45.90;;;;;;5073165;28;20194;-79
2022/07/24 05:35:57;;;;;;;5.17;4.77;;;28.10;45.90;;;;;;5074896;28;20488;-79
2022/07/24 05:38:23;;;;;;;5.80;5.30;;;28.10;45.90;;;;;;5074387;28;20451;-79
2022/07/24 05:40:49;;;;;;;5.60;5.20;;;28.10;45.90;;;;;;5073483;28;20194;-79
2022/07/24 05:43:16;;;;;;;5.63;5.07;;;28.10;45.80;;;;;;5073355;28;20498;-79
2022/07/24 05:45:42;;;;;;;5.60;5.10;;;28.10;45.90;;;;;;5073074;28;20206;-78
2022/07/24 05:48:08;;;;;;;6.87;5.53;;;28.20;46.00;;;;;;5072736;28;20405;-80
2022/07/24 05:50:34;;;;;;;5.60;5.10;;;28.20;46.00;;;;;;5072569;28;20481;-79
2022/07/24 05:53:00;;;;;;;7.50;5.50;;;28.10;45.90;;;;;;5073069;28;20476;-79
2022/07/24 05:55:27;;;;;;;6.00;5.50;;;28.10;45.90;;;;;;5073409;28;20192;-79
2022/07/24 05:57:54;;;;;;;5.73;5.33;;;28.10;45.90;;;;;;5072076;28;20845;-79
2022/07/24 06:00:20;;;;;;;5.93;4.80;;;28.10;45.90;;;;;;5071977;28;20413;-79
2022/07/24 06:02:46;;;;;;;6.03;5.53;;;28.20;45.90;;;;;;5072396;28;20417;-79
2022/07/24 06:05:15;;;;;;;5.90;5.40;;;28.10;45.90;;;;;;5072281;28;20456;-79
2022/07/24 06:07:42;;;;;;;5.43;5.03;;;28.10;46.00;;;;;;5071999;28;20440;-79
2022/07/24 06:10:09;;;;;;;5.70;5.30;;;28.10;46.00;;;;;;5089920;28;20401;-79
2022/07/24 06:12:34;;;;;;;5.33;4.83;;;28.20;46.10;;;;;;5089624;28;20385;-79
2022/07/24 06:15:01;;;;;;;5.47;5.07;;;28.20;46.20;;;;;;5071807;28;20413;-79
2022/07/24 06:17:27;;;;;;;5.50;5.00;;;28.10;46.00;;;;;;5071639;28;20185;-79
2022/07/24 06:19:52;;;;;;;4.97;4.50;;;28.10;46.00;;;;;;5071776;28;20701;-79
2022/07/24 06:22:18;;;;;;;6.03;5.53;;;28.20;46.10;;;;;;5070916;28;20600;-78
2022/07/24 06:24:44;;;;;;;5.33;4.80;;;28.20;46.10;;;;;;5072006;28;20206;-78
2022/07/24 06:27:10;;;;;;;5.77;5.17;;;28.20;46.10;;;;;;5071594;28;20420;-78
2022/07/24 06:29:36;;;;;;;5.90;5.40;;;28.20;46.00;;;;;;5071692;28;20179;-79
2022/07/24 06:32:02;;;;;;;5.47;4.97;;;28.20;46.10;;;;;;5071195;28;20443;-79
2022/07/24 06:34:28;;;;;;;5.93;5.43;;;28.20;46.10;;;;;;5071286;28;20417;-78
2022/07/24 06:36:55;;;;;;;5.73;5.23;;;28.20;46.10;;;;;;5089571;28;20409;-79
2022/07/24 06:39:21;;;;;;;5.90;5.30;;;28.20;46.10;;;;;;5071366;28;20279;-80
2022/07/24 06:41:48;;;;;;;5.67;5.10;;;28.20;46.10;;;;;;5071931;28;20412;-79
2022/07/24 06:44:15;;;;;;;6.67;5.87;;;28.20;46.10;;;;;;5071614;28;20917;-79
2022/07/24 06:46:42;;;;;;;5.70;5.20;;;28.20;46.10;;;;;;5070827;28;20405;-79
2022/07/24 06:49:08;;;;;;;7.23;5.30;;;28.20;46.10;;;;;;5071740;28;20436;-79
2022/07/24 06:51:35;;;;;;;6.00;5.50;;;28.20;46.10;;;;;;5071334;28;20413;-78
2022/07/24 06:54:04;;;;;;;5.60;5.10;;;28.20;46.10;;;;;;5070871;28;20413;-79
2022/07/24 06:56:31;;;;;;;6.77;6.17;;;28.20;46.20;;;;;;5068403;28;20413;-79
2022/07/24 06:58:59;;;;;;;8.17;5.10;;;28.20;46.20;;;;;;5071222;28;20407;-79
2022/07/24 07:01:25;;;;;;;6.13;5.63;;;28.30;46.30;;;;;;5070876;28;20416;-79
2022/07/24 07:03:54;;;;;;;5.90;4.80;;;28.20;46.20;;;;;;5070616;28;20427;-80
2022/07/24 07:06:21;;;;;;;5.97;5.47;;;28.20;46.20;;;;;;5070738;28;20409;-80
2022/07/24 07:08:47;;;;;;;6.73;5.30;;;28.20;46.20;;;;;;5070721;28;20416;-80
2022/07/24 07:11:13;;;;;;;8.87;6.13;;;28.30;46.30;;;;;;5088494;28;20397;-80
2022/07/24 07:13:39;;;;;;;6.20;5.70;;;28.20;46.30;;;;;;5070433;28;20405;-78
2022/07/24 07:16:06;;;;;;;5.87;5.33;;;28.20;46.30;;;;;;5070892;28;20178;-80
2022/07/24 07:18:35;;;;;;;5.87;5.37;;;28.30;46.40;;;;;;5070141;28;20712;-80
2022/07/24 07:21:02;;;;;;;6.00;5.40;;;28.30;46.40;;;;;;5087977;28;20405;-80
2022/07/24 07:23:29;;;;;;;6.40;5.90;;;28.30;46.40;;;;;;5070833;28;20409;-80
2022/07/24 07:25:55;;;;;;;6.60;5.77;;;28.30;46.40;;;;;;5069428;28;20479;-80
2022/07/24 07:28:24;;;;;;;7.27;6.57;;;28.30;46.40;;;;;;5087925;28;20459;-82
2022/07/24 07:30:51;;;;;;;6.37;5.80;;;28.30;46.50;;;;;;5070126;28;20401;-79
2022/07/24 07:33:17;;;;;;;7.33;6.63;;;28.30;46.50;;;;;;5070760;28;20849;-80
2022/07/24 07:35:43;;;;;;;6.10;5.60;;;28.30;46.50;;;;;;5088897;28;20480;-79
2022/07/24 07:38:09;;;;;;;6.80;6.10;;;28.30;46.50;;;;;;5070459;28;20269;-80
2022/07/24 07:40:38;;;;;;;8.07;6.90;;;28.30;46.50;;;;;;5070608;28;20416;-79
2022/07/24 07:43:05;;;;;;;7.60;6.80;;;28.30;46.60;;;;;;5087734;28;20488;-79
2022/07/24 07:45:33;;;;;;;6.43;5.87;;;28.30;46.60;;;;;;5070499;28;20460;-80
2022/07/24 07:47:59;;;;;;;7.57;6.97;;;28.30;46.60;;;;;;5070429;28;20417;-80
2022/07/24 07:50:25;;;;;;;8.57;6.77;;;28.30;46.70;;;;;;5070102;28;20409;-79
2022/07/24 07:52:51;;;;;;;6.80;6.27;;;28.30;46.80;;;;;;5087588;28;20170;-79
2022/07/24 07:55:17;;;;;;;8.03;7.33;;;28.30;46.80;;;;;;5069952;28;20175;-79
2022/07/24 07:57:43;;;;;;;7.73;7.03;;;28.30;46.90;;;;;;5087571;28;20413;-79
2022/07/24 08:00:11;;;;;;;8.10;7.40;;;28.30;47.00;;;;;;5069767;28;20186;-79
2022/07/24 08:02:37;;;;;;;7.83;7.20;;;28.30;47.00;;;;;;5068716;28;20182;-79
2022/07/24 08:05:03;;;;;;;8.47;7.60;;;28.30;47.00;;;;;;5086893;28;20508;-79
2022/07/24 08:07:30;;;;;;;8.93;7.50;;;28.30;47.00;;;;;;5087793;28;20404;-79
2022/07/24 08:09:56;;;;;;;8.00;7.40;;;28.30;47.20;;;;;;5087491;28;20431;-79
2022/07/24 08:12:22;;;;;;;8.20;7.40;;;28.30;47.10;;;;;;5087750;28;20405;-79
2022/07/24 08:14:47;;;;;;;7.83;7.03;;;28.30;47.00;;;;;;5069985;28;20175;-79
2022/07/24 08:17:13;;;;;;;8.50;7.57;;;28.30;47.00;;;;;;5087524;28;20178;-79
2022/07/24 08:19:39;;;;;;;7.70;7.10;;;28.30;47.00;;;;;;5071785;28;20193;-80
2022/07/24 08:22:10;;;;;;;8.10;7.30;;;28.30;47.00;;;;;;5069371;28;20193;-80
2022/07/24 08:24:36;;;;;;;7.97;7.27;;;28.30;47.00;;;;;;5069266;28;20223;-80
2022/07/24 08:27:01;;;;;;;8.03;7.33;;;28.40;47.10;;;;;;5086581;28;20432;-80
2022/07/24 08:29:28;;;;;;;7.33;6.73;;;28.40;47.10;;;;;;5085862;28;20175;-79
2022/07/24 08:31:57;;;;;;;7.90;7.30;;;28.40;47.20;;;;;;5068854;28;20177;-80
2022/07/24 08:34:23;;;;;;;8.30;7.60;;;28.40;47.20;;;;;;5087206;28;20416;-80
2022/07/24 08:36:49;;;;;;;9.80;8.10;;;28.40;47.40;;;;;;5069681;28;20420;-80
2022/07/24 08:39:15;;;;;;;9.40;8.50;;;28.40;47.50;;;;;;5073136;28;20186;-79
2022/07/24 08:41:43;;;;;;;7.50;6.80;;;28.40;47.50;;;;;;5092192;28;20416;-80
2022/07/24 08:51:01;;;;;;;9.40;8.50;;;28.50;47.50;;;;;;4989742;28;20400;-80
2022/07/24 08:53:27;;;;;;;8.47;7.60;;;28.40;47.60;;;;;;4960324;28;20417;-79
2022/07/24 08:55:55;;;;;;;8.63;7.20;;;28.40;47.70;;;;;;4976500;28;20423;-79
2022/07/24 08:58:21;;;;;;;8.93;8.10;;;28.40;47.70;;;;;;4976342;28;20522;-79
2022/07/24 09:00:47;;;;;;;8.40;7.40;;;28.40;47.70;;;;;;4977391;28;20421;-79
2022/07/24 09:03:13;;;;;;;8.93;8.13;;;28.50;47.70;;;;;;4999051;28;20189;-78
2022/07/24 09:05:58;;;;;;;8.07;7.23;;;28.50;47.60;;;;;;4992560;28;20453;-78
2022/07/24 09:08:27;;;;;;;9.57;8.57;;;28.50;47.60;;;;;;4982682;28;20328;-79
2022/07/24 09:10:59;;;;;;;8.13;7.33;;;28.50;47.60;;;;;;4976926;28;20471;-80
2022/07/24 09:13:27;;;;;;;9.10;8.13;;;28.50;47.60;;;;;;4973889;28;20417;-79
2022/07/24 09:15:54;;;;;;;8.63;7.80;;;28.60;47.40;;;;;;4967903;28;20500;-80
2022/07/24 09:18:27;;;;;;;8.37;7.67;;;28.60;47.40;;;;;;5059361;28;20421;-79
2022/07/24 09:20:56;;;;;;;7.87;7.17;;;28.60;47.30;;;;;;5089625;28;20440;-80
2022/07/24 09:23:23;;;;;;;7.53;6.83;;;28.60;47.30;;;;;;5070933;28;20420;-79
2022/07/24 09:25:52;;;;;;;8.47;7.77;;;28.60;47.30;;;;;;5072303;28;20519;-80
2022/07/24 09:28:19;;;;;;;7.97;7.17;;;28.60;47.30;;;;;;5070299;28;20428;-80
2022/07/24 09:30:48;;;;;;;8.10;7.30;;;28.60;47.20;;;;;;5103186;28;20431;-79
2022/07/24 09:33:21;;;;;;;7.60;7.00;;;28.70;47.20;;;;;;5073767;28;20428;-79
2022/07/24 09:35:50;;;;;;;7.23;6.63;;;28.60;47.20;;;;;;5080807;28;20457;-79
2022/07/24 09:38:19;;;;;;;7.50;6.50;;;28.70;47.20;;;;;;5091217;28;20401;-81
2022/07/24 09:40:54;;;;;;;7.10;6.43;;;28.70;47.20;;;;;;5071962;28;20431;-79
2022/07/24 09:43:24;;;;;;;8.47;7.77;;;28.70;47.10;;;;;;5054645;28;20420;-79
2022/07/24 09:45:57;;;;;;;7.80;7.07;;;28.70;47.10;;;;;;5071857;28;20832;-79
2022/07/24 09:48:32;;;;;;;7.33;6.63;;;28.70;47.10;;;;;;5071862;28;20421;-79
2022/07/24 09:51:00;;;;;;;8.13;7.43;;;28.70;47.10;;;;;;5070934;28;20420;-79
2022/07/24 09:53:34;;;;;;;7.33;6.63;;;28.70;47.10;;;;;;5072607;28;20409;-79
2022/07/24 09:56:06;;;;;;;7.90;7.20;;;28.70;47.00;;;;;;5071124;28;20435;-79
2022/07/24 09:58:35;;;;;;;8.13;7.43;;;28.70;47.00;;;;;;5071655;28;20458;-79
2022/07/24 10:01:01;;;;;;;6.83;6.23;;;28.70;47.00;;;;;;5105354;28;20423;-79
2022/07/24 10:03:32;;;;;;;7.57;6.87;;;28.70;47.00;;;;;;5071658;28;20522;-79
2022/07/24 10:06:03;;;;;;;7.77;7.07;;;28.70;47.00;;;;;;5088152;28;20441;-79
2022/07/24 10:08:30;;;;;;;7.63;6.93;;;28.70;47.00;;;;;;5072818;28;20416;-78
2022/07/24 10:10:57;;;;;;;7.23;6.63;;;28.70;47.00;;;;;;5070471;28;20401;-78
2022/07/24 10:13:24;;;;;;;6.97;6.37;;;28.70;47.00;;;;;;5072267;28;20440;-79
2022/07/24 10:15:56;;;;;;;7.70;6.80;;;28.70;47.00;;;;;;5071485;28;20504;-78
2022/07/24 10:18:35;;;;;;;7.07;6.37;;;28.70;47.10;;;;;;5072001;28;20413;-79
2022/07/24 10:21:10;;;;;;;8.03;7.37;;;28.70;47.10;;;;;;5071387;28;20583;-79
2022/07/24 10:24:11;;;;;;;7.17;6.57;;;28.70;47.10;;;;;;5072256;28;20420;-79
2022/07/24 10:26:45;;;;;;;7.77;6.63;;;28.80;47.20;;;;;;5069629;28;20842;-79
2022/07/24 10:29:17;;;;;;;7.40;6.70;;;28.80;47.20;;;;;;5065942;28;20423;-78
2022/07/24 10:31:45;;;;;;;7.77;6.97;;;28.80;47.10;;;;;;5089977;28;20456;-79
2022/07/24 10:34:48;;;;;;;6.60;6.00;;;28.80;47.10;;;;;;5073229;28;20511;-79
2022/07/24 10:37:38;;;;;;;6.70;6.17;;;28.80;47.00;;;;;;5072779;28;20865;-79
2022/07/24 10:40:25;;;;;;;7.40;6.80;;;28.80;47.00;;;;;;5073466;28;20448;-80
2022/07/24 10:43:30;;;;;;;7.43;6.43;;;28.80;47.10;;;;;;5073304;28;20409;-79
2022/07/24 10:45:57;;;;;;;7.10;6.50;;;28.80;47.10;;;;;;4974237;28;20495;-79
2022/07/24 10:48:23;;;;;;;7.67;6.97;;;28.80;47.10;;;;;;4973734;28;20441;-80
2022/07/24 10:51:07;;;;;;;10.10;6.80;;;28.80;47.10;;;;;;4989611;28;20452;-78
2022/07/24 10:53:39;;;;;;;7.17;6.53;;;28.80;47.00;;;;;;4951231;29;20505;-80
2022/07/24 10:56:28;;;;;;;8.03;6.90;;;28.80;46.90;;;;;;4971385;28;20417;-79
2022/07/24 10:59:04;;;;;;;7.83;7.13;;;28.80;46.90;;;;;;4973847;28;20398;-78
2022/07/24 11:01:45;;;;;;;6.67;6.17;;;28.80;46.90;;;;;;4972873;28;20416;-79
2022/07/24 11:04:23;;;;;;;8.00;6.90;;;28.80;46.80;;;;;;4989300;28;20459;-79
2022/07/24 11:06:54;;;;;;;7.93;7.13;;;28.80;46.70;;;;;;4973016;28;20417;-78
2022/07/24 11:09:25;;;;;;;8.47;7.67;;;28.80;46.70;;;;;;4973232;28;20441;-79
2022/07/24 11:11:51;;;;;;;8.27;7.07;;;28.90;46.80;;;;;;4989071;28;20405;-80
2022/07/24 11:17:46;;;;;;;8.53;7.70;;;28.90;46.80;;;;;;5080837;28;20437;-79
2022/07/24 11:20:22;;;;;;;8.03;7.23;;;28.80;46.70;;;;;;5072765;28;20404;-79
2022/07/24 11:22:52;;;;;;;7.83;7.00;;;28.90;46.80;;;;;;5072283;28;20408;-78
2022/07/24 11:25:22;;;;;;;7.00;6.30;;;28.90;46.80;;;;;;5073210;28;20456;-78
2022/07/24 11:28:12;;;;;;;8.73;7.73;;;28.90;46.80;;;;;;5090023;28;20409;-79
2022/07/24 11:30:44;;;;;;;7.30;6.70;;;28.90;46.80;;;;;;5091041;28;20420;-78
2022/07/24 11:33:21;;;;;;;6.90;6.27;;;28.90;46.90;;;;;;5090639;28;20429;-79
2022/07/24 11:35:49;;;;;;;7.47;6.67;;;28.90;46.90;;;;;;5072440;28;20404;-79
2022/07/24 11:38:17;;;;;;;8.60;7.80;;;28.90;46.90;;;;;;5073172;28;20424;-79
2022/07/24 11:40:46;;;;;;;8.97;6.97;;;28.90;46.90;;;;;;5072171;28;20515;-79
2022/07/24 11:43:13;;;;;;;7.57;6.87;;;28.90;47.40;;;;;;5072324;28;20412;-79
2022/07/24 11:45:39;;;;;;;8.17;7.47;;;28.90;46.80;;;;;;5071305;28;20480;-79
2022/07/24 11:48:05;;;;;;;7.90;7.23;;;28.90;46.80;;;;;;5072024;28;20409;-78
2022/07/24 11:50:32;;;;;;;7.80;7.00;;;28.90;46.80;;;;;;5071668;28;20428;-79
2022/07/24 11:52:58;;;;;;;7.10;6.50;;;28.90;46.80;;;;;;5089391;28;20408;-78
2022/07/24 11:55:25;;;;;;;8.70;7.20;;;29.00;46.80;;;;;;5071863;28;20416;-79
2022/07/24 11:57:53;;;;;;;7.70;7.00;;;29.00;46.80;;;;;;5072077;28;20496;-78
2022/07/24 12:00:22;;;;;;;7.37;6.77;;;29.00;46.80;;;;;;5089044;28;20836;-78
2022/07/24 12:02:56;;;;;;;6.40;5.90;;;29.00;46.60;;;;;;5071254;28;20865;-79
2022/07/24 12:05:31;;;;;;;7.63;6.90;;;28.90;46.40;;;;;;5089258;28;20460;-79
2022/07/24 12:07:59;;;;;;;7.57;6.80;;;29.00;46.50;;;;;;5070797;28;20408;-79
2022/07/24 12:10:26;;;;;;;7.10;6.50;;;29.00;46.40;;;;;;5071823;28;20412;-78
2022/07/24 12:12:54;;;;;;;7.97;7.17;;;29.00;46.40;;;;;;5072379;28;20413;-80
2022/07/24 12:15:24;;;;;;;7.97;7.27;;;29.00;46.20;;;;;;5075602;28;20423;-79
2022/07/24 12:18:11;;;;;;;6.97;6.37;;;29.00;46.20;;;;;;5076317;28;20412;-79
2022/07/24 12:20:42;;;;;;;7.47;6.87;;;29.00;46.20;;;;;;5075368;28;20420;-80
2022/07/24 12:23:18;;;;;;;7.10;6.43;;;29.00;46.20;;;;;;5074676;28;20439;-79
2022/07/24 12:25:44;;;;;;;7.17;6.53;;;29.00;46.10;;;;;;5091683;28;20977;-79
2022/07/24 12:28:18;;;;;;;7.30;6.60;;;29.00;46.10;;;;;;5074786;28;20401;-79
2022/07/24 12:30:49;;;;;;;7.07;6.40;;;29.00;46.00;;;;;;5091191;28;20505;-79
2022/07/24 12:33:15;;;;;;;8.70;6.63;;;29.00;46.00;;;;;;5074615;28;20440;-79
2022/07/24 12:36:14;;;;;;;7.80;7.10;;;29.00;46.00;;;;;;5092628;28;20404;-79
2022/07/24 12:38:52;;;;;;;7.20;6.60;;;29.00;46.10;;;;;;5092089;28;20381;-79
2022/07/24 12:41:23;;;;;;;7.60;7.00;;;29.10;46.10;;;;;;5074725;28;20423;-79
2022/07/24 12:43:59;;;;;;;7.73;6.90;;;29.00;46.10;;;;;;5092937;28;20488;-78
2022/07/24 12:46:39;;;;;;;8.07;6.60;;;29.00;46.00;;;;;;5074595;28;20420;-79
2022/07/24 12:49:14;;;;;;;7.37;6.67;;;29.00;46.10;;;;;;5074677;28;20554;-79
2022/07/24 12:51:50;;;;;;;6.90;6.30;;;29.00;46.10;;;;;;5074398;28;20416;-79
2022/07/24 12:54:29;;;;;;;7.33;6.63;;;29.10;46.10;;;;;;5073867;28;20431;-80
2022/07/24 12:57:08;;;;;;;7.30;6.63;;;29.00;46.00;;;;;;5074637;28;20515;-80
2022/07/24 12:59:39;;;;;;;6.23;5.63;;;29.00;46.00;;;;;;5074450;28;20458;-80
2022/07/24 13:02:20;;;;;;;8.50;6.53;;;29.10;46.10;;;;;;5074043;28;20411;-80
2022/07/24 13:04:52;;;;;;;7.77;6.50;;;29.00;45.80;;;;;;5074824;28;20487;-80
2022/07/24 13:07:20;;;;;;;7.07;6.27;;;29.00;45.60;;;;;;5074392;28;20412;-79
2022/07/24 13:09:47;;;;;;;6.60;5.90;;;29.00;45.70;;;;;;5074425;28;20431;-79
2022/07/24 13:12:13;;;;;;;6.60;6.00;;;29.00;45.70;;;;;;5060321;28;20500;-81
2022/07/24 13:14:39;;;;;;;6.80;6.20;;;29.00;45.90;;;;;;5054397;28;20438;-81
2022/07/24 13:17:18;;;;;;;7.00;6.40;;;29.10;46.00;;;;;;5084199;28;20484;-80
2022/07/24 13:19:50;;;;;;;7.50;6.90;;;29.10;46.00;;;;;;5073986;28;20416;-80
2022/07/24 13:22:16;;;;;;;6.50;5.77;;;29.10;45.90;;;;;;5086082;28;20440;-80
2022/07/24 13:24:43;;;;;;;7.40;6.70;;;29.10;45.90;;;;;;5090850;28;20460;-80